sensor_id;sensor_type;location;lat;lon;timestamp;P1;durP1;ratioP1;P2;durP2;ratioP2
13445;SDS011;6795;51.232;3.764;2023-02-28T00:01:29;7.27;;;4.80;;
13445;SDS011;6795;51.232;3.764;2023-02-28T00:03:58;7.20;;;5.13;;
13445;SDS011;6795;51.232;3.764;2023-02-28T00:06:26;5.60;;;5.07;;
13445;SDS011;6795;51.232;3.764;2023-02-28T00:08:56;5.28;;;4.78;;
13445;SDS011;6795;51.232;3.764;2023-02-28T00:11:25;5.55;;;5.15;;
13445;SDS011;6795;51.232;3.764;2023-02-28T00:13:54;7.87;;;5.67;;
13445;SDS011;6795;51.232;3.764;2023-02-28T00:16:23;7.50;;;5.23;;
13445;SDS011;6795;51.232;3.764;2023-02-28T00:18:51;10.40;;;6.20;;
13445;SDS011;6795;51.232;3.764;2023-02-28T00:21:20;6.40;;;5.80;;
13445;SDS011;6795;51.232;3.764;2023-02-28T00:23:49;5.93;;;5.40;;
13445;SDS011;6795;51.232;3.764;2023-02-28T00:26:19;7.67;;;6.00;;
13445;SDS011;6795;51.232;3.764;2023-02-28T00:28:47;8.30;;;6.17;;
13445;SDS011;6795;51.232;3.764;2023-02-28T00:31:16;7.00;;;6.23;;
13445;SDS011;6795;51.232;3.764;2023-02-28T00:33:44;6.17;;;5.60;;
13445;SDS011;6795;51.232;3.764;2023-02-28T00:36:13;7.43;;;6.17;;
13445;SDS011;6795;51.232;3.764;2023-02-28T00:38:41;6.15;;;5.60;;
13445;SDS011;6795;51.232;3.764;2023-02-28T00:41:09;6.87;;;5.10;;
13445;SDS011;6795;51.232;3.764;2023-02-28T00:43:40;7.83;;;5.03;;
13445;SDS011;6795;51.232;3.764;2023-02-28T00:46:09;6.00;;;4.87;;
13445;SDS011;6795;51.232;3.764;2023-02-28T00:48:37;6.17;;;4.30;;
13445;SDS011;6795;51.232;3.764;2023-02-28T00:51:05;5.57;;;4.43;;
13445;SDS011;6795;51.232;3.764;2023-02-28T00:53:34;6.97;;;3.88;;
13445;SDS011;6795;51.232;3.764;2023-02-28T00:56:03;6.15;;;5.15;;
13445;SDS011;6795;51.232;3.764;2023-02-28T00:58:31;4.90;;;4.50;;
13445;SDS011;6795;51.232;3.764;2023-02-28T01:01:01;6.05;;;5.47;;
13445;SDS011;6795;51.232;3.764;2023-02-28T01:03:30;5.40;;;4.53;;
13445;SDS011;6795;51.232;3.764;2023-02-28T01:05:58;5.37;;;4.87;;
13445;SDS011;6795;51.232;3.764;2023-02-28T01:08:28;5.57;;;5.10;;
13445;SDS011;6795;51.232;3.764;2023-02-28T01:10:56;6.23;;;5.17;;
13445;SDS011;6795;51.232;3.764;2023-02-28T01:13:24;6.83;;;4.80;;
13445;SDS011;6795;51.232;3.764;2023-02-28T01:15:54;6.87;;;5.37;;
13445;SDS011;6795;51.232;3.764;2023-02-28T01:18:25;5.95;;;4.32;;
13445;SDS011;6795;51.232;3.764;2023-02-28T01:20:53;6.40;;;4.32;;
13445;SDS011;6795;51.232;3.764;2023-02-28T01:23:23;5.97;;;4.57;;
13445;SDS011;6795;51.232;3.764;2023-02-28T01:25:52;5.13;;;4.30;;
13445;SDS011;6795;51.232;3.764;2023-02-28T01:28:20;5.32;;;4.57;;
13445;SDS011;6795;51.232;3.764;2023-02-28T01:30:49;8.95;;;5.28;;
13445;SDS011;6795;51.232;3.764;2023-02-28T01:33:18;7.53;;;4.57;;
13445;SDS011;6795;51.232;3.764;2023-02-28T01:35:48;6.07;;;5.00;;
13445;SDS011;6795;51.232;3.764;2023-02-28T01:38:17;8.43;;;5.30;;
13445;SDS011;6795;51.232;3.764;2023-02-28T01:40:48;6.43;;;5.37;;
13445;SDS011;6795;51.232;3.764;2023-02-28T01:43:20;11.07;;;5.30;;
13445;SDS011;6795;51.232;3.764;2023-02-28T01:45:51;7.60;;;5.60;;
13445;SDS011;6795;51.232;3.764;2023-02-28T01:48:22;7.88;;;5.45;;
13445;SDS011;6795;51.232;3.764;2023-02-28T01:50:55;9.50;;;5.77;;
13445;SDS011;6795;51.232;3.764;2023-02-28T01:53:29;7.40;;;6.00;;
13445;SDS011;6795;51.232;3.764;2023-02-28T01:56:02;8.43;;;5.90;;
13445;SDS011;6795;51.232;3.764;2023-02-28T01:58:34;7.00;;;5.83;;
13445;SDS011;6795;51.232;3.764;2023-02-28T02:01:04;7.27;;;6.57;;
13445;SDS011;6795;51.232;3.764;2023-02-28T02:03:32;9.80;;;6.37;;
13445;SDS011;6795;51.232;3.764;2023-02-28T02:06:05;11.60;;;7.20;;
13445;SDS011;6795;51.232;3.764;2023-02-28T02:08:34;7.60;;;6.77;;
13445;SDS011;6795;51.232;3.764;2023-02-28T02:11:04;11.67;;;7.50;;
13445;SDS011;6795;51.232;3.764;2023-02-28T02:13:42;7.33;;;6.60;;
13445;SDS011;6795;51.232;3.764;2023-02-28T02:16:29;10.63;;;6.77;;
13445;SDS011;6795;51.232;3.764;2023-02-28T02:19:16;7.87;;;6.90;;
13445;SDS011;6795;51.232;3.764;2023-02-28T02:22:09;12.40;;;8.23;;
13445;SDS011;6795;51.232;3.764;2023-02-28T02:24:53;9.73;;;7.47;;
13445;SDS011;6795;51.232;3.764;2023-02-28T02:27:43;8.93;;;8.02;;
13445;SDS011;6795;51.232;3.764;2023-02-28T02:36:27;10.90;;;7.25;;
13445;SDS011;6795;51.232;3.764;2023-02-28T02:39:00;8.68;;;7.85;;
13445;SDS011;6795;51.232;3.764;2023-02-28T02:41:34;9.88;;;7.95;;
13445;SDS011;6795;51.232;3.764;2023-02-28T02:44:09;9.07;;;8.00;;
13445;SDS011;6795;51.232;3.764;2023-02-28T02:46:42;9.73;;;7.57;;
13445;SDS011;6795;51.232;3.764;2023-02-28T02:49:13;8.32;;;6.97;;
13445;SDS011;6795;51.232;3.764;2023-02-28T02:51:49;10.90;;;7.70;;
13445;SDS011;6795;51.232;3.764;2023-02-28T02:54:19;8.10;;;7.30;;
13445;SDS011;6795;51.232;3.764;2023-02-28T02:56:50;10.68;;;8.27;;
13445;SDS011;6795;51.232;3.764;2023-02-28T02:59:20;12.75;;;7.93;;
13445;SDS011;6795;51.232;3.764;2023-02-28T03:01:51;10.00;;;8.05;;
13445;SDS011;6795;51.232;3.764;2023-02-28T03:04:23;10.32;;;7.25;;
13445;SDS011;6795;51.232;3.764;2023-02-28T03:06:57;10.02;;;7.75;;
13445;SDS011;6795;51.232;3.764;2023-02-28T03:09:26;9.02;;;7.32;;
13445;SDS011;6795;51.232;3.764;2023-02-28T03:11:55;9.43;;;6.83;;
13445;SDS011;6795;51.232;3.764;2023-02-28T03:14:33;11.18;;;8.05;;
13445;SDS011;6795;51.232;3.764;2023-02-28T03:17:23;7.60;;;6.72;;
13445;SDS011;6795;51.232;3.764;2023-02-28T03:20:01;7.25;;;6.55;;
13445;SDS011;6795;51.232;3.764;2023-02-28T03:22:40;9.95;;;6.97;;
13445;SDS011;6795;51.232;3.764;2023-02-28T03:25:20;9.90;;;7.17;;
13445;SDS011;6795;51.232;3.764;2023-02-28T03:27:58;7.50;;;6.35;;
13445;SDS011;6795;51.232;3.764;2023-02-28T03:30:35;8.20;;;6.70;;
13445;SDS011;6795;51.232;3.764;2023-02-28T03:33:09;9.50;;;6.63;;
13445;SDS011;6795;51.232;3.764;2023-02-28T03:35:42;8.20;;;6.00;;
13445;SDS011;6795;51.232;3.764;2023-02-28T03:38:16;8.00;;;6.07;;
13445;SDS011;6795;51.232;3.764;2023-02-28T03:40:50;8.85;;;6.20;;
13445;SDS011;6795;51.232;3.764;2023-02-28T03:43:27;8.48;;;5.95;;
13445;SDS011;6795;51.232;3.764;2023-02-28T03:46:00;6.38;;;5.72;;
13445;SDS011;6795;51.232;3.764;2023-02-28T03:48:36;9.38;;;5.47;;
13445;SDS011;6795;51.232;3.764;2023-02-28T03:51:08;10.82;;;5.85;;
13445;SDS011;6795;51.232;3.764;2023-02-28T03:53:44;9.75;;;5.75;;
13445;SDS011;6795;51.232;3.764;2023-02-28T03:56:16;8.95;;;5.50;;
13445;SDS011;6795;51.232;3.764;2023-02-28T03:58:47;5.75;;;5.20;;
13445;SDS011;6795;51.232;3.764;2023-02-28T04:01:23;5.53;;;4.45;;
13445;SDS011;6795;51.232;3.764;2023-02-28T04:03:58;10.05;;;5.82;;
13445;SDS011;6795;51.232;3.764;2023-02-28T04:06:26;5.38;;;4.88;;
13445;SDS011;6795;51.232;3.764;2023-02-28T04:08:59;7.05;;;5.63;;
13445;SDS011;6795;51.232;3.764;2023-02-28T04:11:29;6.68;;;5.32;;
13445;SDS011;6795;51.232;3.764;2023-02-28T04:14:04;5.13;;;4.63;;
13445;SDS011;6795;51.232;3.764;2023-02-28T04:16:34;5.50;;;5.00;;
13445;SDS011;6795;51.232;3.764;2023-02-28T04:19:05;6.72;;;4.32;;
13445;SDS011;6795;51.232;3.764;2023-02-28T04:21:35;7.78;;;5.25;;
13445;SDS011;6795;51.232;3.764;2023-02-28T04:24:21;6.00;;;4.85;;
13445;SDS011;6795;51.232;3.764;2023-02-28T04:26:51;6.20;;;4.78;;
13445;SDS011;6795;51.232;3.764;2023-02-28T04:29:22;5.57;;;5.05;;
13445;SDS011;6795;51.232;3.764;2023-02-28T04:31:52;7.93;;;5.55;;
13445;SDS011;6795;51.232;3.764;2023-02-28T04:34:22;8.13;;;5.72;;
13445;SDS011;6795;51.232;3.764;2023-02-28T04:36:52;5.38;;;4.88;;
13445;SDS011;6795;51.232;3.764;2023-02-28T04:39:39;6.75;;;4.97;;
13445;SDS011;6795;51.232;3.764;2023-02-28T04:42:08;5.95;;;5.07;;
13445;SDS011;6795;51.232;3.764;2023-02-28T04:44:37;5.78;;;4.63;;
13445;SDS011;6795;51.232;3.764;2023-02-28T04:47:05;8.82;;;5.60;;
13445;SDS011;6795;51.232;3.764;2023-02-28T04:49:34;7.93;;;5.78;;
13445;SDS011;6795;51.232;3.764;2023-02-28T04:52:02;6.05;;;5.45;;
13445;SDS011;6795;51.232;3.764;2023-02-28T04:54:31;7.00;;;5.78;;
13445;SDS011;6795;51.232;3.764;2023-02-28T04:57:01;7.45;;;5.07;;
13445;SDS011;6795;51.232;3.764;2023-02-28T04:59:30;6.55;;;5.05;;
13445;SDS011;6795;51.232;3.764;2023-02-28T05:01:59;9.13;;;5.32;;
13445;SDS011;6795;51.232;3.764;2023-02-28T05:04:33;7.40;;;5.95;;
13445;SDS011;6795;51.232;3.764;2023-02-28T05:07:02;6.20;;;4.95;;
13445;SDS011;6795;51.232;3.764;2023-02-28T05:09:31;5.18;;;4.72;;
13445;SDS011;6795;51.232;3.764;2023-02-28T05:12:03;6.38;;;4.60;;
13445;SDS011;6795;51.232;3.764;2023-02-28T05:14:31;6.63;;;5.03;;
13445;SDS011;6795;51.232;3.764;2023-02-28T05:17:00;6.47;;;4.97;;
13445;SDS011;6795;51.232;3.764;2023-02-28T05:19:28;5.45;;;4.90;;
13445;SDS011;6795;51.232;3.764;2023-02-28T05:21:57;7.40;;;5.45;;
13445;SDS011;6795;51.232;3.764;2023-02-28T05:24:26;5.72;;;5.13;;
13445;SDS011;6795;51.232;3.764;2023-02-28T05:26:54;7.07;;;4.60;;
13445;SDS011;6795;51.232;3.764;2023-02-28T05:29:24;6.35;;;4.38;;
13445;SDS011;6795;51.232;3.764;2023-02-28T05:31:53;6.82;;;5.20;;
13445;SDS011;6795;51.232;3.764;2023-02-28T05:34:21;5.25;;;4.75;;
13445;SDS011;6795;51.232;3.764;2023-02-28T05:36:50;5.63;;;4.53;;
13445;SDS011;6795;51.232;3.764;2023-02-28T05:39:18;7.88;;;4.40;;
13445;SDS011;6795;51.232;3.764;2023-02-28T05:41:47;5.53;;;4.88;;
13445;SDS011;6795;51.232;3.764;2023-02-28T05:44:16;7.03;;;5.07;;
13445;SDS011;6795;51.232;3.764;2023-02-28T05:46:46;5.90;;;4.80;;
13445;SDS011;6795;51.232;3.764;2023-02-28T05:49:15;10.32;;;5.20;;
13445;SDS011;6795;51.232;3.764;2023-02-28T05:51:44;5.68;;;4.78;;
13445;SDS011;6795;51.232;3.764;2023-02-28T05:54:12;6.65;;;4.95;;
13445;SDS011;6795;51.232;3.764;2023-02-28T05:56:40;5.85;;;5.20;;
13445;SDS011;6795;51.232;3.764;2023-02-28T05:59:10;5.57;;;5.10;;
13445;SDS011;6795;51.232;3.764;2023-02-28T06:01:39;8.63;;;5.07;;
13445;SDS011;6795;51.232;3.764;2023-02-28T06:04:17;6.43;;;5.20;;
13445;SDS011;6795;51.232;3.764;2023-02-28T06:06:57;8.80;;;5.18;;
13445;SDS011;6795;51.232;3.764;2023-02-28T06:09:26;9.80;;;4.88;;
13445;SDS011;6795;51.232;3.764;2023-02-28T06:11:54;11.35;;;5.35;;
13445;SDS011;6795;51.232;3.764;2023-02-28T06:14:25;5.97;;;5.00;;
13445;SDS011;6795;51.232;3.764;2023-02-28T06:16:53;9.60;;;5.15;;
13445;SDS011;6795;51.232;3.764;2023-02-28T06:19:26;5.40;;;4.90;;
13445;SDS011;6795;51.232;3.764;2023-02-28T06:21:55;5.97;;;4.80;;
13445;SDS011;6795;51.232;3.764;2023-02-28T06:24:25;8.98;;;5.80;;
13445;SDS011;6795;51.232;3.764;2023-02-28T06:26:55;9.05;;;7.00;;
13445;SDS011;6795;51.232;3.764;2023-02-28T06:29:25;9.07;;;6.18;;
13445;SDS011;6795;51.232;3.764;2023-02-28T06:31:53;7.97;;;6.05;;
13445;SDS011;6795;51.232;3.764;2023-02-28T06:34:22;6.55;;;4.35;;
13445;SDS011;6795;51.232;3.764;2023-02-28T06:36:51;5.75;;;3.50;;
13445;SDS011;6795;51.232;3.764;2023-02-28T06:39:20;3.80;;;3.28;;
13445;SDS011;6795;51.232;3.764;2023-02-28T06:41:48;3.72;;;2.72;;
13445;SDS011;6795;51.232;3.764;2023-02-28T06:44:21;2.08;;;1.70;;
13445;SDS011;6795;51.232;3.764;2023-02-28T06:46:50;5.38;;;2.92;;
13445;SDS011;6795;51.232;3.764;2023-02-28T06:49:20;3.17;;;2.58;;
13445;SDS011;6795;51.232;3.764;2023-02-28T06:51:48;4.47;;;2.75;;
13445;SDS011;6795;51.232;3.764;2023-02-28T06:54:18;6.10;;;3.08;;
13445;SDS011;6795;51.232;3.764;2023-02-28T06:56:46;2.38;;;2.00;;
13445;SDS011;6795;51.232;3.764;2023-02-28T06:59:15;3.38;;;1.83;;
13445;SDS011;6795;51.232;3.764;2023-02-28T07:01:44;3.35;;;2.05;;
13445;SDS011;6795;51.232;3.764;2023-02-28T07:04:12;6.57;;;2.03;;
13445;SDS011;6795;51.232;3.764;2023-02-28T07:06:41;2.67;;;1.75;;
13445;SDS011;6795;51.232;3.764;2023-02-28T07:09:09;4.22;;;2.47;;
13445;SDS011;6795;51.232;3.764;2023-02-28T07:11:40;6.20;;;3.40;;
13445;SDS011;6795;51.232;3.764;2023-02-28T07:14:09;5.10;;;3.65;;
13445;SDS011;6795;51.232;3.764;2023-02-28T07:16:37;3.78;;;2.42;;
13445;SDS011;6795;51.232;3.764;2023-02-28T07:19:06;1.75;;;1.10;;
13445;SDS011;6795;51.232;3.764;2023-02-28T07:21:34;4.18;;;1.00;;
13445;SDS011;6795;51.232;3.764;2023-02-28T07:24:03;2.15;;;1.20;;
13445;SDS011;6795;51.232;3.764;2023-02-28T07:26:31;2.30;;;1.00;;
13445;SDS011;6795;51.232;3.764;2023-02-28T07:29:02;1.80;;;0.90;;
13445;SDS011;6795;51.232;3.764;2023-02-28T07:31:33;1.20;;;0.80;;
13445;SDS011;6795;51.232;3.764;2023-02-28T07:34:01;1.90;;;0.63;;
13445;SDS011;6795;51.232;3.764;2023-02-28T07:36:30;1.20;;;0.68;;
13445;SDS011;6795;51.232;3.764;2023-02-28T07:38:59;2.85;;;0.80;;
13445;SDS011;6795;51.232;3.764;2023-02-28T07:41:27;1.73;;;0.95;;
13445;SDS011;6795;51.232;3.764;2023-02-28T07:43:56;2.17;;;0.80;;
13445;SDS011;6795;51.232;3.764;2023-02-28T07:46:28;1.33;;;0.50;;
13445;SDS011;6795;51.232;3.764;2023-02-28T07:49:02;2.13;;;0.70;;
13445;SDS011;6795;51.232;3.764;2023-02-28T07:51:31;1.35;;;0.65;;
13445;SDS011;6795;51.232;3.764;2023-02-28T07:54:00;3.35;;;0.80;;
13445;SDS011;6795;51.232;3.764;2023-02-28T07:56:28;0.70;;;0.70;;
13445;SDS011;6795;51.232;3.764;2023-02-28T07:58:57;1.63;;;0.80;;
13445;SDS011;6795;51.232;3.764;2023-02-28T08:01:26;0.70;;;0.52;;
13445;SDS011;6795;51.232;3.764;2023-02-28T08:03:56;2.22;;;0.80;;
13445;SDS011;6795;51.232;3.764;2023-02-28T08:06:25;1.55;;;0.50;;
13445;SDS011;6795;51.232;3.764;2023-02-28T08:08:53;1.58;;;0.80;;
13445;SDS011;6795;51.232;3.764;2023-02-28T08:11:24;0.75;;;0.60;;
13445;SDS011;6795;51.232;3.764;2023-02-28T08:13:54;0.75;;;0.63;;
13445;SDS011;6795;51.232;3.764;2023-02-28T08:16:22;1.10;;;0.85;;
13445;SDS011;6795;51.232;3.764;2023-02-28T08:18:51;1.65;;;1.02;;
13445;SDS011;6795;51.232;3.764;2023-02-28T08:21:22;3.17;;;1.02;;
13445;SDS011;6795;51.232;3.764;2023-02-28T08:23:50;2.08;;;1.00;;
13445;SDS011;6795;51.232;3.764;2023-02-28T08:26:19;2.47;;;0.98;;
13445;SDS011;6795;51.232;3.764;2023-02-28T08:28:48;2.15;;;0.95;;
13445;SDS011;6795;51.232;3.764;2023-02-28T08:31:17;2.88;;;1.67;;
13445;SDS011;6795;51.232;3.764;2023-02-28T08:33:46;2.65;;;1.75;;
13445;SDS011;6795;51.232;3.764;2023-02-28T08:36:18;4.57;;;1.15;;
13445;SDS011;6795;51.232;3.764;2023-02-28T08:38:48;1.83;;;1.23;;
13445;SDS011;6795;51.232;3.764;2023-02-28T08:41:17;3.72;;;1.80;;
13445;SDS011;6795;51.232;3.764;2023-02-28T08:43:45;3.97;;;1.65;;
13445;SDS011;6795;51.232;3.764;2023-02-28T08:46:14;2.95;;;1.10;;
13445;SDS011;6795;51.232;3.764;2023-02-28T08:48:42;2.15;;;0.98;;
13445;SDS011;6795;51.232;3.764;2023-02-28T08:51:12;2.58;;;1.25;;
13445;SDS011;6795;51.232;3.764;2023-02-28T08:53:42;2.78;;;1.77;;
13445;SDS011;6795;51.232;3.764;2023-02-28T08:56:13;1.88;;;1.10;;
13445;SDS011;6795;51.232;3.764;2023-02-28T08:58:43;0.90;;;0.90;;
13445;SDS011;6795;51.232;3.764;2023-02-28T09:01:13;2.15;;;1.13;;
13445;SDS011;6795;51.232;3.764;2023-02-28T09:03:43;2.10;;;0.90;;
13445;SDS011;6795;51.232;3.764;2023-02-28T09:06:13;1.85;;;1.25;;
13445;SDS011;6795;51.232;3.764;2023-02-28T09:08:43;3.63;;;1.25;;
13445;SDS011;6795;51.232;3.764;2023-02-28T09:11:14;1.65;;;1.42;;
13445;SDS011;6795;51.232;3.764;2023-02-28T09:13:42;2.70;;;1.67;;
13445;SDS011;6795;51.232;3.764;2023-02-28T09:16:12;3.30;;;1.20;;
13445;SDS011;6795;51.232;3.764;2023-02-28T09:18:42;2.17;;;1.30;;
13445;SDS011;6795;51.232;3.764;2023-02-28T09:21:12;4.63;;;2.65;;
13445;SDS011;6795;51.232;3.764;2023-02-28T09:23:42;1.90;;;1.20;;
13445;SDS011;6795;51.232;3.764;2023-02-28T09:26:14;1.95;;;1.25;;
13445;SDS011;6795;51.232;3.764;2023-02-28T09:28:44;2.38;;;0.95;;
13445;SDS011;6795;51.232;3.764;2023-02-28T09:31:13;1.08;;;0.68;;
13445;SDS011;6795;51.232;3.764;2023-02-28T09:33:48;1.73;;;1.10;;
13445;SDS011;6795;51.232;3.764;2023-02-28T09:36:18;1.85;;;1.00;;
13445;SDS011;6795;51.232;3.764;2023-02-28T09:38:59;2.85;;;0.95;;
13445;SDS011;6795;51.232;3.764;2023-02-28T09:41:31;1.08;;;1.02;;
13445;SDS011;6795;51.232;3.764;2023-02-28T09:44:06;1.00;;;0.93;;
13445;SDS011;6795;51.232;3.764;2023-02-28T09:46:41;1.63;;;1.40;;
13445;SDS011;6795;51.232;3.764;2023-02-28T09:49:14;0.80;;;0.80;;
13445;SDS011;6795;51.232;3.764;2023-02-28T09:51:50;2.80;;;0.93;;
13445;SDS011;6795;51.232;3.764;2023-02-28T09:54:27;2.85;;;1.13;;
13445;SDS011;6795;51.232;3.764;2023-02-28T09:57:00;1.17;;;1.08;;
13445;SDS011;6795;51.232;3.764;2023-02-28T09:59:50;1.35;;;1.10;;
13445;SDS011;6795;51.232;3.764;2023-02-28T10:02:44;2.88;;;0.90;;
13445;SDS011;6795;51.232;3.764;2023-02-28T10:05:25;2.35;;;1.08;;
13445;SDS011;6795;51.232;3.764;2023-02-28T10:08:01;2.15;;;0.90;;
13445;SDS011;6795;51.232;3.764;2023-02-28T10:10:36;3.85;;;1.10;;
13445;SDS011;6795;51.232;3.764;2023-02-28T10:13:15;1.80;;;0.90;;
13445;SDS011;6795;51.232;3.764;2023-02-28T10:15:51;1.13;;;0.75;;
13445;SDS011;6795;51.232;3.764;2023-02-28T10:18:24;3.40;;;1.30;;
13445;SDS011;6795;51.232;3.764;2023-02-28T10:20:55;3.33;;;1.00;;
13445;SDS011;6795;51.232;3.764;2023-02-28T10:23:25;2.33;;;0.80;;
13445;SDS011;6795;51.232;3.764;2023-02-28T10:25:57;0.88;;;0.82;;
13445;SDS011;6795;51.232;3.764;2023-02-28T10:28:31;4.72;;;0.60;;
13445;SDS011;6795;51.232;3.764;2023-02-28T10:30:59;2.17;;;0.50;;
13445;SDS011;6795;51.232;3.764;2023-02-28T10:33:30;1.20;;;0.63;;
13445;SDS011;6795;51.232;3.764;2023-02-28T10:36:02;1.25;;;0.98;;
13445;SDS011;6795;51.232;3.764;2023-02-28T10:38:34;0.90;;;0.60;;
13445;SDS011;6795;51.232;3.764;2023-02-28T10:41:04;1.55;;;0.50;;
13445;SDS011;6795;51.232;3.764;2023-02-28T10:43:36;3.42;;;0.70;;
13445;SDS011;6795;51.232;3.764;2023-02-28T10:46:10;0.73;;;0.50;;
13445;SDS011;6795;51.232;3.764;2023-02-28T10:48:42;0.55;;;0.55;;
13445;SDS011;6795;51.232;3.764;2023-02-28T10:51:15;0.50;;;0.50;;
13445;SDS011;6795;51.232;3.764;2023-02-28T10:53:47;1.13;;;0.50;;
13445;SDS011;6795;51.232;3.764;2023-02-28T10:56:27;3.75;;;0.57;;
13445;SDS011;6795;51.232;3.764;2023-02-28T10:58:59;0.60;;;0.40;;
13445;SDS011;6795;51.232;3.764;2023-02-28T11:01:36;1.48;;;0.40;;
13445;SDS011;6795;51.232;3.764;2023-02-28T11:07:06;0.75;;;0.52;;
13445;SDS011;6795;51.232;3.764;2023-02-28T11:09:48;0.90;;;0.82;;
13445;SDS011;6795;51.232;3.764;2023-02-28T11:12:20;0.80;;;0.60;;
13445;SDS011;6795;51.232;3.764;2023-02-28T11:14:53;0.73;;;0.63;;
13445;SDS011;6795;51.232;3.764;2023-02-28T11:17:27;0.98;;;0.70;;
13445;SDS011;6795;51.232;3.764;2023-02-28T11:19:57;0.75;;;0.50;;
13445;SDS011;6795;51.232;3.764;2023-02-28T11:22:29;1.10;;;0.50;;
13445;SDS011;6795;51.232;3.764;2023-02-28T11:25:03;1.65;;;0.70;;
13445;SDS011;6795;51.232;3.764;2023-02-28T11:27:44;1.17;;;0.50;;
13445;SDS011;6795;51.232;3.764;2023-02-28T11:30:30;0.60;;;0.60;;
13445;SDS011;6795;51.232;3.764;2023-02-28T11:33:17;0.60;;;0.50;;
13445;SDS011;6795;51.232;3.764;2023-02-28T11:35:49;2.50;;;1.23;;
13445;SDS011;6795;51.232;3.764;2023-02-28T11:38:20;3.65;;;0.47;;
13445;SDS011;6795;51.232;3.764;2023-02-28T11:40:51;0.98;;;0.40;;
13445;SDS011;6795;51.232;3.764;2023-02-28T11:43:35;0.50;;;0.43;;
13445;SDS011;6795;51.232;3.764;2023-02-28T11:46:22;1.50;;;0.70;;
13445;SDS011;6795;51.232;3.764;2023-02-28T11:49:02;1.00;;;0.50;;
13445;SDS011;6795;51.232;3.764;2023-02-28T11:51:44;0.57;;;0.52;;
13445;SDS011;6795;51.232;3.764;2023-02-28T11:54:29;0.40;;;0.40;;
13445;SDS011;6795;51.232;3.764;2023-02-28T11:57:15;2.20;;;0.50;;
13445;SDS011;6795;51.232;3.764;2023-02-28T11:59:56;1.50;;;0.70;;
13445;SDS011;6795;51.232;3.764;2023-02-28T12:02:33;0.95;;;0.50;;
13445;SDS011;6795;51.232;3.764;2023-02-28T12:05:17;0.40;;;0.38;;
13445;SDS011;6795;51.232;3.764;2023-02-28T12:07:55;1.10;;;0.47;;
13445;SDS011;6795;51.232;3.764;2023-02-28T12:10:34;4.90;;;0.57;;
13445;SDS011;6795;51.232;3.764;2023-02-28T12:13:12;0.40;;;0.40;;
13445;SDS011;6795;51.232;3.764;2023-02-28T12:15:50;0.75;;;0.47;;
13445;SDS011;6795;51.232;3.764;2023-02-28T12:18:45;0.40;;;0.40;;
13445;SDS011;6795;51.232;3.764;2023-02-28T12:21:27;1.13;;;0.50;;
13445;SDS011;6795;51.232;3.764;2023-02-28T12:24:08;4.28;;;0.38;;
13445;SDS011;6795;51.232;3.764;2023-02-28T12:26:56;4.28;;;0.70;;
13445;SDS011;6795;51.232;3.764;2023-02-28T12:29:29;3.08;;;0.52;;
13445;SDS011;6795;51.232;3.764;2023-02-28T12:32:03;2.10;;;0.40;;
13445;SDS011;6795;51.232;3.764;2023-02-28T12:34:41;4.68;;;0.55;;
13445;SDS011;6795;51.232;3.764;2023-02-28T12:37:15;0.40;;;0.40;;
13445;SDS011;6795;51.232;3.764;2023-02-28T12:39:50;2.92;;;0.40;;
13445;SDS011;6795;51.232;3.764;2023-02-28T12:42:24;1.40;;;0.57;;
13445;SDS011;6795;51.232;3.764;2023-02-28T12:44:56;0.35;;;0.30;;
13445;SDS011;6795;51.232;3.764;2023-02-28T12:47:28;1.02;;;0.50;;
13445;SDS011;6795;51.232;3.764;2023-02-28T12:49:59;0.32;;;0.30;;
13445;SDS011;6795;51.232;3.764;2023-02-28T12:52:33;0.90;;;0.50;;
13445;SDS011;6795;51.232;3.764;2023-02-28T12:55:07;0.43;;;0.43;;
13445;SDS011;6795;51.232;3.764;2023-02-28T12:57:43;2.53;;;0.30;;
13445;SDS011;6795;51.232;3.764;2023-02-28T13:00:18;0.50;;;0.50;;
13445;SDS011;6795;51.232;3.764;2023-02-28T13:03:10;1.33;;;0.60;;
13445;SDS011;6795;51.232;3.764;2023-02-28T13:06:05;0.88;;;0.25;;
13445;SDS011;6795;51.232;3.764;2023-02-28T13:11:40;1.15;;;0.40;;
13445;SDS011;6795;51.232;3.764;2023-02-28T13:14:22;0.90;;;0.60;;
13445;SDS011;6795;51.232;3.764;2023-02-28T13:16:55;0.73;;;0.40;;
13445;SDS011;6795;51.232;3.764;2023-02-28T13:19:27;1.00;;;0.40;;
13445;SDS011;6795;51.232;3.764;2023-02-28T13:21:59;3.60;;;0.50;;
13445;SDS011;6795;51.232;3.764;2023-02-28T13:24:37;2.47;;;0.40;;
13445;SDS011;6795;51.232;3.764;2023-02-28T13:27:21;0.75;;;0.30;;
13445;SDS011;6795;51.232;3.764;2023-02-28T13:30:00;0.88;;;0.30;;
13445;SDS011;6795;51.232;3.764;2023-02-28T13:33:04;0.35;;;0.35;;
13445;SDS011;6795;51.232;3.764;2023-02-28T13:36:00;0.38;;;0.38;;
13445;SDS011;6795;51.232;3.764;2023-02-28T13:38:51;0.60;;;0.40;;
13445;SDS011;6795;51.232;3.764;2023-02-28T13:44:23;0.40;;;0.40;;
13445;SDS011;6795;51.232;3.764;2023-02-28T13:49:52;0.30;;;0.20;;
13445;SDS011;6795;51.232;3.764;2023-02-28T13:52:22;1.13;;;0.50;;
13445;SDS011;6795;51.232;3.764;2023-02-28T13:54:56;0.60;;;0.60;;
13445;SDS011;6795;51.232;3.764;2023-02-28T13:57:35;1.75;;;0.60;;
13445;SDS011;6795;51.232;3.764;2023-02-28T14:00:18;0.63;;;0.50;;
13445;SDS011;6795;51.232;3.764;2023-02-28T14:03:00;1.80;;;0.45;;
13445;SDS011;6795;51.232;3.764;2023-02-28T14:05:38;0.40;;;0.30;;
13445;SDS011;6795;51.232;3.764;2023-02-28T14:08:08;0.30;;;0.30;;
13445;SDS011;6795;51.232;3.764;2023-02-28T14:10:45;1.58;;;0.50;;
13445;SDS011;6795;51.232;3.764;2023-02-28T14:16:13;2.40;;;0.70;;
13445;SDS011;6795;51.232;3.764;2023-02-28T14:18:47;1.15;;;0.70;;
13445;SDS011;6795;51.232;3.764;2023-02-28T14:21:21;3.05;;;0.50;;
13445;SDS011;6795;51.232;3.764;2023-02-28T14:26:58;1.25;;;0.50;;
13445;SDS011;6795;51.232;3.764;2023-02-28T14:32:58;0.73;;;0.32;;
13445;SDS011;6795;51.232;3.764;2023-02-28T14:35:40;0.90;;;0.60;;
13445;SDS011;6795;51.232;3.764;2023-02-28T14:38:19;0.88;;;0.70;;
13445;SDS011;6795;51.232;3.764;2023-02-28T14:40:52;0.60;;;0.60;;
13445;SDS011;6795;51.232;3.764;2023-02-28T14:43:25;0.68;;;0.63;;
13445;SDS011;6795;51.232;3.764;2023-02-28T14:45:56;1.50;;;0.50;;
13445;SDS011;6795;51.232;3.764;2023-02-28T14:48:26;0.50;;;0.50;;
13445;SDS011;6795;51.232;3.764;2023-02-28T14:50:56;1.85;;;0.47;;
13445;SDS011;6795;51.232;3.764;2023-02-28T14:53:27;2.92;;;0.63;;
13445;SDS011;6795;51.232;3.764;2023-02-28T14:55:57;0.60;;;0.60;;
13445;SDS011;6795;51.232;3.764;2023-02-28T14:58:29;8.55;;;0.50;;
13445;SDS011;6795;51.232;3.764;2023-02-28T15:01:00;1.08;;;0.50;;
13445;SDS011;6795;51.232;3.764;2023-02-28T15:03:31;0.52;;;0.50;;
13445;SDS011;6795;51.232;3.764;2023-02-28T15:06:03;0.88;;;0.40;;
13445;SDS011;6795;51.232;3.764;2023-02-28T15:08:33;4.45;;;0.70;;
13445;SDS011;6795;51.232;3.764;2023-02-28T15:11:04;0.50;;;0.50;;
13445;SDS011;6795;51.232;3.764;2023-02-28T15:13:38;1.10;;;0.57;;
13445;SDS011;6795;51.232;3.764;2023-02-28T15:16:11;1.67;;;0.50;;
13445;SDS011;6795;51.232;3.764;2023-02-28T15:18:45;0.73;;;0.50;;
13445;SDS011;6795;51.232;3.764;2023-02-28T15:21:16;0.50;;;0.50;;
13445;SDS011;6795;51.232;3.764;2023-02-28T15:23:48;0.82;;;0.60;;
13445;SDS011;6795;51.232;3.764;2023-02-28T15:26:21;1.08;;;0.75;;
13445;SDS011;6795;51.232;3.764;2023-02-28T15:28:57;0.82;;;0.70;;
13445;SDS011;6795;51.232;3.764;2023-02-28T15:31:28;1.88;;;0.50;;
13445;SDS011;6795;51.232;3.764;2023-02-28T15:34:18;2.50;;;0.50;;
13445;SDS011;6795;51.232;3.764;2023-02-28T15:36:53;1.17;;;0.68;;
13445;SDS011;6795;51.232;3.764;2023-02-28T15:39:23;2.30;;;0.80;;
13445;SDS011;6795;51.232;3.764;2023-02-28T15:42:11;0.73;;;0.68;;
13445;SDS011;6795;51.232;3.764;2023-02-28T15:44:41;0.90;;;0.77;;
13445;SDS011;6795;51.232;3.764;2023-02-28T15:47:14;0.75;;;0.75;;
13445;SDS011;6795;51.232;3.764;2023-02-28T15:49:47;1.50;;;0.60;;
13445;SDS011;6795;51.232;3.764;2023-02-28T15:52:19;1.20;;;0.40;;
13445;SDS011;6795;51.232;3.764;2023-02-28T15:54:51;0.50;;;0.50;;
13445;SDS011;6795;51.232;3.764;2023-02-28T15:57:20;1.85;;;0.85;;
13445;SDS011;6795;51.232;3.764;2023-02-28T15:59:54;0.60;;;0.60;;
13445;SDS011;6795;51.232;3.764;2023-02-28T16:02:30;1.45;;;0.73;;